createdAt,value
2019-01-15T00:00:14.265Z,7.9
2019-01-15T00:01:15.669Z,7.9
2019-01-15T00:02:17.201Z,7.9
2019-01-15T00:03:18.740Z,7.2
2019-01-15T00:04:20.121Z,7.3
2019-01-15T00:05:21.351Z,7.4
2019-01-15T00:06:22.887Z,7.5
2019-01-15T00:07:24.255Z,7.6
2019-01-15T00:08:25.644Z,7.6
2019-01-15T00:09:27.032Z,7.6
2019-01-15T00:10:28.475Z,7.7
2019-01-15T00:11:30.034Z,7.7
2019-01-15T00:12:31.416Z,7.7
2019-01-15T00:13:32.656Z,7.8
2019-01-15T00:14:34.194Z,7.8
2019-01-15T00:15:35.579Z,7.8
2019-01-15T00:16:37.108Z,7.8
2019-01-15T00:17:38.175Z,7.8
2019-01-15T00:18:39.705Z,7.8
2019-01-15T00:19:41.212Z,7.8
2019-01-15T00:20:42.722Z,7.8
2019-01-15T00:21:43.948Z,7.8
2019-01-15T00:22:45.524Z,7.8
2019-01-15T00:23:47.058Z,7.8
2019-01-15T00:24:48.431Z,7.8
2019-01-15T00:25:49.983Z,7.8
2019-01-15T00:26:51.352Z,7.8
2019-01-15T00:27:52.719Z,7.2
2019-01-15T00:28:54.329Z,7.2
2019-01-15T00:29:55.881Z,7.2
2019-01-15T00:30:57.094Z,7.3
2019-01-15T00:31:58.457Z,7.3
2019-01-15T00:32:59.992Z,7.3
2019-01-15T00:34:01.607Z,7.4
2019-01-15T00:35:03.175Z,7.4
2019-01-15T00:36:04.707Z,7.4
2019-01-15T00:37:06.082Z,7.5
2019-01-15T00:38:07.164Z,7.5
2019-01-15T00:39:08.212Z,7.5
2019-01-15T00:40:09.806Z,7.6
2019-01-15T00:41:11.037Z,7.6
2019-01-15T00:42:16.623Z,7.6
2019-01-15T00:43:17.988Z,7.6
2019-01-15T00:44:19.215Z,7.7
2019-01-15T00:45:20.765Z,7.7
2019-01-15T00:46:22.037Z,7.7
2019-01-15T00:47:23.577Z,7.7
2019-01-15T00:48:25.102Z,7.7
2019-01-15T00:49:26.635Z,7.7
2019-01-15T00:50:28.155Z,7.7
2019-01-15T00:51:29.361Z,7.7
2019-01-15T00:52:30.927Z,7.7
2019-01-15T00:53:32.464Z,7.7
2019-01-15T00:54:34.008Z,7.8
2019-01-15T00:55:35.373Z,7.8
2019-01-15T00:56:36.895Z,7.8
2019-01-15T00:57:38.253Z,7.8
2019-01-15T00:58:39.616Z,7.8
2019-01-15T00:59:41.145Z,7.9
2019-01-15T01:00:42.515Z,7.9
2019-01-15T01:01:43.899Z,7.9
2019-01-15T01:02:45.443Z,7.9
2019-01-15T01:03:46.844Z,7.9
2019-01-15T01:04:48.227Z,7.9
2019-01-15T01:05:49.602Z,7.9
2019-01-15T01:06:51.125Z,7.9
2019-01-15T01:07:52.634Z,7.9
2019-01-15T01:08:54.172Z,7.9
2019-01-15T01:09:55.702Z,7.9
2019-01-15T01:10:57.229Z,7.9
2019-01-15T01:11:58.757Z,7.2
2019-01-15T01:13:00.146Z,7.3
2019-01-15T01:14:01.677Z,7.3
2019-01-15T01:15:03.199Z,7.4
2019-01-15T01:16:04.445Z,7.5
2019-01-15T01:17:05.807Z,7.5
2019-01-15T01:18:07.335Z,7.6
2019-01-15T01:19:08.685Z,7.6
2019-01-15T01:20:09.893Z,7.7
2019-01-15T01:21:11.413Z,7.8
2019-01-15T01:22:12.667Z,7.8
2019-01-15T01:23:14.213Z,7.9
2019-01-15T01:24:15.585Z,7.9
2019-01-15T01:25:17.104Z,7.9
2019-01-15T01:26:18.314Z,7.9
2019-01-15T01:27:19.859Z,7.9
2019-01-15T01:28:21.393Z,7.9
2019-01-15T01:29:22.599Z,7.9
2019-01-15T01:30:24.129Z,7.9
2019-01-15T01:31:25.511Z,7.9
2019-01-15T01:32:26.935Z,7.9
2019-01-15T01:33:28.309Z,7.9
2019-01-15T01:34:29.838Z,7.9
2019-01-15T01:35:31.197Z,7.9
2019-01-15T01:36:32.727Z,7.8
2019-01-15T01:37:34.087Z,7.8
2019-01-15T01:38:35.639Z,7.8
2019-01-15T01:39:37.167Z,7.8
2019-01-15T01:40:38.708Z,7.8
2019-01-15T01:41:40.256Z,7.8
2019-01-15T01:42:41.787Z,7.8
2019-01-15T01:43:43.337Z,7.8
2019-01-15T01:44:44.707Z,7.8
2019-01-15T01:45:46.244Z,7.8
2019-01-15T01:46:47.772Z,7.8
2019-01-15T01:47:49.326Z,7.8
2019-01-15T01:48:50.860Z,7.8
2019-01-15T01:49:52.381Z,7.7
2019-01-15T01:50:53.741Z,7.7
2019-01-15T01:51:55.281Z,7.8
2019-01-15T01:52:56.634Z,7.8
2019-01-15T01:53:58.002Z,7.8
2019-01-15T01:54:59.540Z,7.8
2019-01-15T01:56:01.093Z,7.8
2019-01-15T01:57:02.620Z,7.8
2019-01-15T01:58:04.141Z,7.8
2019-01-15T01:59:05.365Z,7.8
2019-01-15T02:00:06.904Z,7.8
2019-01-15T02:01:08.430Z,7.8
2019-01-15T02:02:09.808Z,7.8
2019-01-15T02:03:11.351Z,7.8
2019-01-15T02:04:12.572Z,7.8
2019-01-15T02:05:13.959Z,7.8
2019-01-15T02:06:15.337Z,7.8
2019-01-15T02:07:16.719Z,7.7
2019-01-15T02:08:18.239Z,7.7
2019-01-15T02:09:19.765Z,7.7
2019-01-15T02:10:21.131Z,7.6
2019-01-15T02:11:22.495Z,7.5
2019-01-15T02:12:24.005Z,7.4
2019-01-15T02:13:25.541Z,7.2
2019-01-15T02:14:27.105Z,7.2
2019-01-15T02:15:28.339Z,7.2
2019-01-15T02:16:29.862Z,7.2
2019-01-15T02:17:31.447Z,7.1
2019-01-15T02:18:32.971Z,7.1
2019-01-15T02:19:34.555Z,7.2
2019-01-15T02:20:36.088Z,7.1
2019-01-15T02:21:37.445Z,7.1
2019-01-15T02:22:38.955Z,7.1
2019-01-15T02:23:40.317Z,7.1
2019-01-15T02:24:41.835Z,7.1
2019-01-15T02:25:43.194Z,7.1
2019-01-15T02:26:44.555Z,7.1
2019-01-15T02:27:45.956Z,7.1
2019-01-15T02:28:47.491Z,7.1
2019-01-15T02:29:48.863Z,7.1
2019-01-15T02:30:50.405Z,7.1
2019-01-15T02:31:51.946Z,7.1
2019-01-15T02:32:53.511Z,7.1
2019-01-15T02:33:54.928Z,7.1
2019-01-15T02:34:56.465Z,7.1
2019-01-15T02:35:57.861Z,7.1
2019-01-15T02:36:59.241Z,7.1
2019-01-15T02:38:00.767Z,7.1
2019-01-15T02:39:02.143Z,7.1
2019-01-15T02:40:03.575Z,7.1
2019-01-15T02:41:05.206Z,7.1
2019-01-15T02:42:06.425Z,7.1
2019-01-15T02:43:07.785Z,7.1
2019-01-15T02:44:09.305Z,7.1
2019-01-15T02:45:10.853Z,7.1
2019-01-15T02:46:12.397Z,7.1
2019-01-15T02:47:13.794Z,7.2
2019-01-15T02:48:15.333Z,7.2
2019-01-15T02:49:16.866Z,7.2
2019-01-15T02:50:18.349Z,7.2
2019-01-15T02:51:19.924Z,7.2
2019-01-15T02:52:21.534Z,7.2
2019-01-15T02:53:23.063Z,7.2
2019-01-15T02:54:24.293Z,7.2
2019-01-15T02:55:25.875Z,7.2
2019-01-15T02:56:27.255Z,7.2
2019-01-15T02:57:28.791Z,7.2
2019-01-15T02:58:30.182Z,7.2
2019-01-15T02:59:31.683Z,7.2
2019-01-15T03:00:33.218Z,7.2
2019-01-15T03:01:34.738Z,7.2
2019-01-15T03:02:36.094Z,7.2
2019-01-15T03:03:37.473Z,7.3
2019-01-15T03:04:38.995Z,7.3
2019-01-15T03:05:40.515Z,7.4
2019-01-15T03:06:42.053Z,7.4
2019-01-15T03:07:43.433Z,7.4
2019-01-15T03:08:44.827Z,7.5
2019-01-15T03:09:46.372Z,7.5
2019-01-15T03:10:47.924Z,7.6
2019-01-15T03:11:49.290Z,7.6
2019-01-15T03:12:58.105Z,7.7
2019-01-15T03:13:59.181Z,7.7
2019-01-15T03:15:00.630Z,7.7
2019-01-15T03:16:02.185Z,7.7
2019-01-15T03:17:03.755Z,7.8
2019-01-15T03:18:05.122Z,7.8
2019-01-15T03:19:06.627Z,7.8
2019-01-15T03:20:08.160Z,7.8
2019-01-15T03:21:09.703Z,7.8
2019-01-15T03:22:11.226Z,7.8
2019-01-15T03:23:12.772Z,7.8
2019-01-15T03:24:14.309Z,7.8
2019-01-15T03:25:15.686Z,7.8
2019-01-15T03:26:17.241Z,7.8
2019-01-15T03:27:19.416Z,7.8
2019-01-15T03:28:20.930Z,7.8
2019-01-15T03:29:22.465Z,7.8
2019-01-15T03:30:24.106Z,7.8
2019-01-15T03:31:25.358Z,7.8
2019-01-15T03:32:26.995Z,7.8
2019-01-15T03:33:28.539Z,7.8
2019-01-15T03:34:30.073Z,7.8
2019-01-15T03:35:31.603Z,7.7
2019-01-15T03:36:32.854Z,7.7
2019-01-15T03:37:34.436Z,7.7
2019-01-15T03:38:35.880Z,7.7
2019-01-15T03:39:37.406Z,7.7
2019-01-15T03:40:38.785Z,7.7
2019-01-15T03:41:40.310Z,7.6
2019-01-15T03:42:41.895Z,7.6
2019-01-15T03:43:43.116Z,7.6
2019-01-15T03:44:44.657Z,7.6
2019-01-15T03:45:46.045Z,7.5
2019-01-15T03:46:47.418Z,7.5
2019-01-15T03:47:48.952Z,7.5
2019-01-15T03:48:50.338Z,7.5
2019-01-15T03:49:51.848Z,7.5
2019-01-15T03:50:53.385Z,7.5
2019-01-15T03:51:54.918Z,7.5
2019-01-15T03:52:56.433Z,7.6
2019-01-15T03:53:57.963Z,7.6
2019-01-15T03:54:59.496Z,7.7
2019-01-15T03:56:01.020Z,7.7
2019-01-15T03:57:02.419Z,7.8
2019-01-15T03:58:04.027Z,7.8
2019-01-15T03:59:05.557Z,7.8
2019-01-15T04:00:06.604Z,7.9
2019-01-15T04:01:07.963Z,7.9
2019-01-15T04:02:09.196Z,7.9
2019-01-15T04:03:10.725Z,7.9
2019-01-15T04:04:12.315Z,7.9
2019-01-15T04:05:13.701Z,7.9
2019-01-15T04:06:15.093Z,7.9
2019-01-15T04:07:16.635Z,7.9
2019-01-15T04:08:18.008Z,7.9
2019-01-15T04:09:19.529Z,7.9
2019-01-15T04:10:20.905Z,7.8
2019-01-15T04:11:22.434Z,7.8
2019-01-15T04:12:23.645Z,7.7
2019-01-15T04:13:25.377Z,7.6
2019-01-15T04:14:26.862Z,7.5
2019-01-15T04:15:29.017Z,7.4
2019-01-15T04:16:30.412Z,7.2
2019-01-15T04:17:31.780Z,7.1
2019-01-15T04:18:33.326Z,7.2
2019-01-15T04:19:34.857Z,7.2
2019-01-15T04:20:36.400Z,7.2
2019-01-15T04:21:37.792Z,7.2
2019-01-15T04:22:39.323Z,7.2
2019-01-15T04:23:40.723Z,7.2
2019-01-15T04:24:41.942Z,7.2
2019-01-15T04:25:43.473Z,7.2
2019-01-15T04:26:44.835Z,7.2
2019-01-15T04:27:46.346Z,7.2
2019-01-15T04:28:47.897Z,7.2
2019-01-15T04:29:49.418Z,7.2
2019-01-15T04:30:51.203Z,7.2
2019-01-15T04:31:52.710Z,7.2
2019-01-15T04:32:54.252Z,7.2
2019-01-15T04:33:56.022Z,7.2
2019-01-15T04:34:57.506Z,7.2
2019-01-15T04:35:59.076Z,7.3
2019-01-15T04:37:00.451Z,7.4
2019-01-15T04:38:02.022Z,7.5
2019-01-15T04:39:03.273Z,7.6
2019-01-15T04:40:04.826Z,7.7
2019-01-15T04:41:06.081Z,7.8
2019-01-15T04:42:07.336Z,7.8
2019-01-15T04:43:08.906Z,7.9
2019-01-15T04:44:10.492Z,7.9
2019-01-15T04:45:12.018Z,7.9
2019-01-15T04:46:13.552Z,7.9
2019-01-15T04:47:14.925Z,7.9
2019-01-15T04:48:16.324Z,7.9
2019-01-15T04:49:17.693Z,7.9
2019-01-15T04:50:19.239Z,7.9
2019-01-15T04:51:20.617Z,7.2
2019-01-15T04:52:21.989Z,7.3
2019-01-15T04:53:23.601Z,7.3
2019-01-15T04:54:25.126Z,7.4
2019-01-15T04:55:26.366Z,7.5
2019-01-15T04:56:27.886Z,7.5
2019-01-15T04:57:29.245Z,7.6
2019-01-15T04:58:30.486Z,7.6
2019-01-15T04:59:32.125Z,7.7
2019-01-15T05:00:33.524Z,7.7
2019-01-15T05:01:35.258Z,7.7
2019-01-15T05:02:36.898Z,7.8
2019-01-15T05:03:38.506Z,7.8
2019-01-15T05:04:40.035Z,7.8
2019-01-15T05:05:41.602Z,7.8
2019-01-15T05:06:43.146Z,7.8
2019-01-15T05:07:44.706Z,7.8
2019-01-15T05:08:46.230Z,7.8
2019-01-15T05:09:47.756Z,7.9
2019-01-15T05:10:49.145Z,7.9
2019-01-15T05:11:50.684Z,7.9
2019-01-15T05:12:52.220Z,7.9
2019-01-15T05:13:53.598Z,7.9
2019-01-15T05:14:54.860Z,7.9
2019-01-15T05:15:56.387Z,7.9
2019-01-15T05:16:57.635Z,7.8
2019-01-15T05:17:59.194Z,7.8
2019-01-15T05:19:00.753Z,7.8
2019-01-15T05:20:02.327Z,7.8
2019-01-15T05:21:03.918Z,7.8
2019-01-15T05:22:05.454Z,7.8
2019-01-15T05:23:06.882Z,7.8
2019-01-15T05:24:08.444Z,7.8
2019-01-15T05:25:09.984Z,7.8
2019-01-15T05:26:11.525Z,7.8
2019-01-15T05:27:12.935Z,7.8
2019-01-15T05:28:14.325Z,7.8
2019-01-15T05:29:15.562Z,7.8
2019-01-15T05:30:16.985Z,7.8
2019-01-15T05:31:18.539Z,7.8
2019-01-15T05:32:19.907Z,7.8
2019-01-15T05:33:21.343Z,7.8
2019-01-15T05:34:22.637Z,7.8
2019-01-15T05:35:24.022Z,7.8
2019-01-15T05:36:25.543Z,7.8
2019-01-15T05:37:27.068Z,7.8
2019-01-15T05:38:28.464Z,7.8
2019-01-15T05:39:30.014Z,7.8
2019-01-15T05:40:31.560Z,7.8
2019-01-15T05:41:33.091Z,7.8
2019-01-15T05:42:34.466Z,7.8
2019-01-15T05:43:37.432Z,7.9
2019-01-15T05:44:38.890Z,7.9
2019-01-15T05:45:40.419Z,7.9
2019-01-15T05:46:41.959Z,7.8
2019-01-15T05:47:43.502Z,7.8
2019-01-15T05:48:44.870Z,7.8
2019-01-15T05:49:46.235Z,7.8
2019-01-15T05:50:47.774Z,7.8
2019-01-15T05:51:49.151Z,7.9
2019-01-15T05:52:50.519Z,7.9
2019-01-15T05:53:52.058Z,7.9
2019-01-15T05:54:53.594Z,7.8
2019-01-15T05:55:55.122Z,7.8
2019-01-15T05:56:56.720Z,7.8
2019-01-15T05:57:58.294Z,7.7
2019-01-15T05:58:59.840Z,7.6
2019-01-15T06:00:01.236Z,7.5
2019-01-15T06:01:02.465Z,7.3
2019-01-15T06:02:03.983Z,7.2
2019-01-15T06:03:05.362Z,7.1
2019-01-15T06:04:06.894Z,7.1
2019-01-15T06:05:08.438Z,7.1
2019-01-15T06:06:09.796Z,7.1
2019-01-15T06:07:11.167Z,7.1
2019-01-15T06:08:12.558Z,7.1
2019-01-15T06:09:14.100Z,7.1
2019-01-15T06:10:15.644Z,7.1
2019-01-15T06:11:17.004Z,7.1
2019-01-15T06:12:18.404Z,7.2
2019-01-15T06:13:19.940Z,7.2
2019-01-15T06:14:21.456Z,7.2
2019-01-15T06:15:22.993Z,7.2
2019-01-15T06:16:24.514Z,7.2
2019-01-15T06:17:25.876Z,7.2
2019-01-15T06:18:27.413Z,7.2
2019-01-15T06:19:28.780Z,7.2
2019-01-15T06:20:30.162Z,7.2
2019-01-15T06:21:31.683Z,7.3
2019-01-15T06:22:33.055Z,7.3
2019-01-15T06:23:34.584Z,7.4
2019-01-15T06:24:36.202Z,7.5
2019-01-15T06:25:37.793Z,7.6
2019-01-15T06:26:39.371Z,7.7
2019-01-15T06:27:40.622Z,7.7
2019-01-15T06:28:42.154Z,7.8
2019-01-15T06:29:43.692Z,7.8
2019-01-15T06:30:45.078Z,7.8
2019-01-15T06:31:46.462Z,7.8
2019-01-15T06:32:47.830Z,7.8
2019-01-15T06:33:49.384Z,7.9
2019-01-15T06:34:50.943Z,7.9
2019-01-15T06:35:52.495Z,7.9
2019-01-15T06:36:53.930Z,7.9
2019-01-15T06:37:55.472Z,7.9
2019-01-15T06:38:56.894Z,7.9
2019-01-15T06:39:58.429Z,7.9
2019-01-15T06:40:59.956Z,7.9
2019-01-15T06:42:01.374Z,7.9
2019-01-15T06:43:04.481Z,7.9
2019-01-15T06:44:06.475Z,7.9
2019-01-15T06:45:07.923Z,7.9
2019-01-15T06:46:09.468Z,7.9
2019-01-15T06:47:10.985Z,7.9
2019-01-15T06:48:12.373Z,7.9
2019-01-15T06:49:13.910Z,7.9
2019-01-15T06:50:15.544Z,7.9
2019-01-15T06:51:17.079Z,7.9
2019-01-15T06:52:18.595Z,7.9
2019-01-15T06:53:19.976Z,7.9
2019-01-15T06:54:21.373Z,7.8
2019-01-15T06:55:22.735Z,7.8
2019-01-15T06:56:24.241Z,7.8
2019-01-15T06:57:25.518Z,7.8
2019-01-15T06:58:27.047Z,7.8
2019-01-15T06:59:28.655Z,7.8
2019-01-15T07:00:30.470Z,7.7
2019-01-15T07:01:31.847Z,7.7
2019-01-15T07:02:33.378Z,7.7
2019-01-15T07:03:34.925Z,7.7
2019-01-15T07:04:43.603Z,7.7
2019-01-15T07:05:45.005Z,7.7
2019-01-15T07:06:46.215Z,7.6
2019-01-15T07:07:47.748Z,7.6
2019-01-15T07:08:49.118Z,7.6
2019-01-15T07:09:50.483Z,7.7
2019-01-15T07:10:51.904Z,7.7
2019-01-15T07:11:53.154Z,7.7
2019-01-15T07:12:54.684Z,7.7
2019-01-15T07:13:58.650Z,7.8
2019-01-15T07:15:00.261Z,7.8
2019-01-15T07:16:01.651Z,7.8
2019-01-15T07:17:02.714Z,7.8
2019-01-15T07:18:04.085Z,7.8
2019-01-15T07:19:05.486Z,7.9
2019-01-15T07:20:06.866Z,7.9
2019-01-15T07:21:08.230Z,7.8
2019-01-15T07:22:09.475Z,7.8
2019-01-15T07:23:10.995Z,7.9
2019-01-15T07:24:12.535Z,7.9
2019-01-15T07:25:14.068Z,7.9
2019-01-15T07:26:16.385Z,7.7
2019-01-15T07:27:17.764Z,7.8
2019-01-15T07:28:19.273Z,7.9
2019-01-15T07:29:20.832Z,7.8
2019-01-15T07:30:22.040Z,7.9
2019-01-15T07:31:23.580Z,7.9
2019-01-15T07:32:25.148Z,7.9
2019-01-15T07:33:26.659Z,7.9
2019-01-15T07:34:28.206Z,7.7
2019-01-15T07:35:29.590Z,7.7
2019-01-15T07:36:30.962Z,7.7
2019-01-15T07:37:32.346Z,7.6
2019-01-15T07:38:33.902Z,7.5
2019-01-15T07:39:35.114Z,7.4
2019-01-15T07:40:36.504Z,7.3
2019-01-15T07:41:38.043Z,7.2
2019-01-15T07:42:39.434Z,7.1
2019-01-15T07:43:40.967Z,7.1
2019-01-15T07:44:42.332Z,7.1
2019-01-15T07:45:43.863Z,7.2
2019-01-15T07:46:45.084Z,7.1
2019-01-15T07:47:46.294Z,7.1
2019-01-15T07:48:47.669Z,7.1
2019-01-15T07:49:49.040Z,7.1
2019-01-15T07:50:50.274Z,7.1
2019-01-15T07:51:51.647Z,7.1
2019-01-15T07:52:52.925Z,7.1
2019-01-15T07:53:54.461Z,7.1
2019-01-15T07:54:56.005Z,7.2
2019-01-15T07:55:57.534Z,7.2
2019-01-15T07:56:59.073Z,7.2
2019-01-15T07:58:00.604Z,7.2
2019-01-15T07:59:01.970Z,7.2
2019-01-15T08:00:03.534Z,7.2
2019-01-15T08:01:04.611Z,7.2
2019-01-15T08:02:05.834Z,7.2
2019-01-15T08:03:07.379Z,7.3
2019-01-15T08:04:08.945Z,7.3
2019-01-15T08:05:10.174Z,7.4
2019-01-15T08:06:11.704Z,7.5
2019-01-15T08:07:12.772Z,7.6
2019-01-15T08:08:13.995Z,7.7
2019-01-15T08:09:15.363Z,7.7
2019-01-15T08:10:16.915Z,7.8
2019-01-15T08:11:18.325Z,7.9
2019-01-15T08:12:19.407Z,7.9
2019-01-15T08:13:20.996Z,7.9
2019-01-15T08:14:22.544Z,7.9
2019-01-15T08:15:24.099Z,7.9
2019-01-15T08:16:25.663Z,7.9
2019-01-15T08:17:27.223Z,7.9
2019-01-15T08:18:28.751Z,7.9
2019-01-15T08:19:30.380Z,7.9
2019-01-15T08:20:31.923Z,7.9
2019-01-15T08:21:33.307Z,7.9
2019-01-15T08:22:34.540Z,7.9
2019-01-15T08:23:35.920Z,7.9
2019-01-15T08:24:37.475Z,7.9
2019-01-15T08:25:38.856Z,7.9
2019-01-15T08:26:40.409Z,7.8
2019-01-15T08:27:41.970Z,7.8
2019-01-15T08:28:43.505Z,7.8
2019-01-15T08:29:45.056Z,7.8
2019-01-15T08:30:46.586Z,7.8
2019-01-15T08:31:48.124Z,7.8
2019-01-15T08:32:49.664Z,7.8
2019-01-15T08:33:51.046Z,7.8
2019-01-15T08:34:52.607Z,7.8
2019-01-15T08:35:54.144Z,7.9
2019-01-15T08:36:55.678Z,7.5
2019-01-15T08:37:57.246Z,7.6
2019-01-15T08:38:58.477Z,7.6
2019-01-15T08:39:59.862Z,7.7
2019-01-15T08:41:01.464Z,7.7
2019-01-15T08:42:02.893Z,7.8
2019-01-15T08:43:04.289Z,7.8
2019-01-15T08:44:05.375Z,7.8
2019-01-15T08:45:06.761Z,7.9
2019-01-15T08:46:08.169Z,7.9
2019-01-15T08:47:09.551Z,7.9
2019-01-15T08:48:11.082Z,7.9
2019-01-15T08:49:12.627Z,7.8
2019-01-15T08:50:13.998Z,7.8
2019-01-15T08:51:15.381Z,7.8
2019-01-15T08:52:16.780Z,7.8
2019-01-15T08:53:18.184Z,7.8
2019-01-15T08:54:19.573Z,7.8
2019-01-15T08:55:20.921Z,7.8
2019-01-15T08:56:22.455Z,7.8
2019-01-15T08:57:23.843Z,7.9
2019-01-15T08:58:25.385Z,7.8
2019-01-15T08:59:26.613Z,7.8
2019-01-15T09:00:28.149Z,7.8
2019-01-15T09:01:29.721Z,7.8
2019-01-15T09:02:31.139Z,7.8
2019-01-15T09:03:32.670Z,7.8
2019-01-15T09:04:33.893Z,7.8
2019-01-15T09:05:35.666Z,7.2
2019-01-15T09:06:36.966Z,7.3
2019-01-15T09:07:38.376Z,7.3
2019-01-15T09:08:39.907Z,7.4
2019-01-15T09:09:41.337Z,7.4
2019-01-15T09:10:42.924Z,7.4
2019-01-15T09:11:44.465Z,7.4
2019-01-15T09:12:46.009Z,7.3
2019-01-15T09:13:47.407Z,7.2
2019-01-15T09:14:48.771Z,7.2
2019-01-15T09:15:50.003Z,7.1
2019-01-15T09:16:51.545Z,7.2
2019-01-15T09:17:53.083Z,7.1
2019-01-15T09:18:54.732Z,7.1
2019-01-15T09:19:55.997Z,7.1
2019-01-15T09:20:57.382Z,7.2
2019-01-15T09:21:59.066Z,7.2
2019-01-15T09:23:00.615Z,7.1
2019-01-15T09:24:02.020Z,7.1
2019-01-15T09:25:03.591Z,7.1
2019-01-15T09:26:05.261Z,7.2
2019-01-15T09:27:06.672Z,7.2
2019-01-15T09:28:08.068Z,7.2
2019-01-15T09:29:09.775Z,7.2
2019-01-15T09:30:11.362Z,7.2
2019-01-15T09:31:12.784Z,7.2
2019-01-15T09:32:14.342Z,7.2
2019-01-15T09:33:15.737Z,7.2
2019-01-15T09:34:17.281Z,7.2
2019-01-15T09:35:18.810Z,7.3
2019-01-15T09:36:20.208Z,7.3
2019-01-15T09:37:21.750Z,7.4
2019-01-15T09:38:23.305Z,7.5
2019-01-15T09:39:24.562Z,7.5
2019-01-15T09:40:25.951Z,7.6
2019-01-15T09:41:27.194Z,7.7
2019-01-15T09:42:28.780Z,7.7
2019-01-15T09:43:30.185Z,7.7
2019-01-15T09:44:35.555Z,7.8
2019-01-15T09:45:37.111Z,7.8
2019-01-15T09:46:38.664Z,7.9
2019-01-15T09:47:40.200Z,7.9
2019-01-15T09:48:41.563Z,7.9
2019-01-15T09:49:42.957Z,7.9
2019-01-15T09:50:44.353Z,7.9
2019-01-15T09:51:45.908Z,7.9
2019-01-15T09:52:47.447Z,7.9
2019-01-15T09:53:48.987Z,7.9
2019-01-15T09:54:50.546Z,7.9
2019-01-15T09:55:51.773Z,7.9
2019-01-15T09:56:53.146Z,7.9
2019-01-15T09:57:54.566Z,7.9
2019-01-15T09:58:55.952Z,7.9
2019-01-15T09:59:57.516Z,7.9
2019-01-15T10:00:58.935Z,7.9
2019-01-15T10:02:00.476Z,7.9
2019-01-15T10:03:02.035Z,7.9
2019-01-15T10:04:03.566Z,7.9
2019-01-15T10:05:05.116Z,7.8
2019-01-15T10:06:06.494Z,7.8
2019-01-15T10:07:08.036Z,7.8
2019-01-15T10:08:09.578Z,7.8
2019-01-15T10:09:11.121Z,7.8
2019-01-15T10:10:12.661Z,7.8
2019-01-15T10:11:14.041Z,7.7
2019-01-15T10:12:15.422Z,7.7
2019-01-15T10:13:16.795Z,7.7
2019-01-15T10:14:18.350Z,7.7
2019-01-15T10:15:19.608Z,7.7
2019-01-15T10:16:21.142Z,7.7
2019-01-15T10:17:22.357Z,7.7
2019-01-15T10:18:23.885Z,7.7
2019-01-15T10:19:25.281Z,7.7
2019-01-15T10:20:26.816Z,7.7
2019-01-15T10:21:28.383Z,7.7
2019-01-15T10:22:29.771Z,7.7
2019-01-15T10:23:31.344Z,7.7
2019-01-15T10:24:32.761Z,7.7
2019-01-15T10:25:34.196Z,7.7
2019-01-15T10:26:35.752Z,7.7
2019-01-15T10:27:37.282Z,7.7
2019-01-15T10:28:38.345Z,7.8
2019-01-15T10:29:39.914Z,7.8
2019-01-15T10:30:41.295Z,7.8
2019-01-15T10:31:42.705Z,7.8
2019-01-15T10:32:44.132Z,7.9
2019-01-15T10:33:45.545Z,7.7
2019-01-15T10:34:46.924Z,7.7
2019-01-15T10:35:48.204Z,7.8
2019-01-15T10:36:49.424Z,7.8
2019-01-15T10:37:50.962Z,7.8
2019-01-15T10:38:52.494Z,7.8
2019-01-15T10:39:54.045Z,7.8
2019-01-15T10:40:55.277Z,7.8
2019-01-15T10:41:56.657Z,7.8
2019-01-15T10:42:58.191Z,7.8
2019-01-15T10:43:59.717Z,7.8
2019-01-15T10:45:01.010Z,7.8
2019-01-15T10:46:02.544Z,7.8
2019-01-15T10:47:03.613Z,7.7
2019-01-15T10:48:05.155Z,7.7
2019-01-15T10:49:06.545Z,7.6
2019-01-15T10:50:08.066Z,7.5
2019-01-15T10:51:09.849Z,7.3
2019-01-15T10:52:11.382Z,7.2
2019-01-15T10:53:12.762Z,7.1
2019-01-15T10:54:14.149Z,7.1
2019-01-15T10:55:15.537Z,7.1
2019-01-15T10:56:16.768Z,7.1
2019-01-15T10:57:18.158Z,7.1
2019-01-15T10:58:19.767Z,7.2
2019-01-15T10:59:21.314Z,7.1
2019-01-15T11:00:22.786Z,7.1
2019-01-15T11:01:24.335Z,7.2
2019-01-15T11:02:25.706Z,7.1
2019-01-15T11:03:27.233Z,7.2
2019-01-15T11:04:28.619Z,7.2
2019-01-15T11:05:29.848Z,7.2
2019-01-15T11:06:31.268Z,7.2
2019-01-15T11:07:32.634Z,7.2
2019-01-15T11:08:34.050Z,7.2
2019-01-15T11:09:35.595Z,7.2
2019-01-15T11:10:36.883Z,7.2
2019-01-15T11:11:38.280Z,7.3
2019-01-15T11:12:39.665Z,7.4
2019-01-15T11:13:40.981Z,7.4
2019-01-15T11:14:42.363Z,7.4
2019-01-15T11:15:44.987Z,7.5
2019-01-15T11:16:46.553Z,7.6
2019-01-15T11:17:47.794Z,7.6
2019-01-15T11:18:49.172Z,7.7
2019-01-15T11:19:50.544Z,7.8
2019-01-15T11:20:52.081Z,7.8
2019-01-15T11:21:53.149Z,7.9
2019-01-15T11:22:54.544Z,7.9
2019-01-15T11:23:55.914Z,7.9
2019-01-15T11:24:57.297Z,7.9
2019-01-15T11:25:58.847Z,7.9
2019-01-15T11:27:00.435Z,7.9
2019-01-15T11:28:02.016Z,7.9
2019-01-15T11:29:03.566Z,7.9
2019-01-15T11:30:05.111Z,7.9
2019-01-15T11:31:06.498Z,7.9
2019-01-15T11:32:07.892Z,7.9
2019-01-15T11:33:09.287Z,7.9
2019-01-15T11:34:10.656Z,7.9
2019-01-15T11:35:12.198Z,7.8
2019-01-15T11:36:13.634Z,7.8
2019-01-15T11:37:15.178Z,7.8
2019-01-15T11:38:16.711Z,7.8
2019-01-15T11:39:18.294Z,7.8
2019-01-15T11:40:19.693Z,7.8
2019-01-15T11:41:21.090Z,7.8
2019-01-15T11:42:22.465Z,7.8
2019-01-15T11:43:24.003Z,7.8
2019-01-15T11:44:25.377Z,7.8
2019-01-15T11:45:26.920Z,7.8
2019-01-15T11:46:28.305Z,7.8
2019-01-15T11:47:29.706Z,7.8
2019-01-15T11:48:31.094Z,7.8
2019-01-15T11:49:32.487Z,7.8
2019-01-15T11:50:34.031Z,7.7
2019-01-15T11:51:35.578Z,7.7
2019-01-15T11:52:37.134Z,7.7
2019-01-15T11:53:38.727Z,7.7
2019-01-15T11:54:40.262Z,7.7
2019-01-15T11:55:42.006Z,7.8
2019-01-15T11:56:43.538Z,7.7
2019-01-15T11:57:44.915Z,7.7
2019-01-15T11:58:46.299Z,7.7
2019-01-15T11:59:47.839Z,7.6
2019-01-15T12:00:49.208Z,7.6
2019-01-15T12:01:50.767Z,7.6
2019-01-15T12:02:52.327Z,7.6
2019-01-15T12:03:53.902Z,7.6
2019-01-15T12:04:55.436Z,7.7
2019-01-15T12:05:56.657Z,7.7
2019-01-15T12:06:58.250Z,7.8
2019-01-15T12:07:59.803Z,7.8
2019-01-15T12:09:01.337Z,7.8
2019-01-15T12:10:02.893Z,7.8
2019-01-15T12:11:04.424Z,7.8
2019-01-15T12:12:05.950Z,7.8
2019-01-15T12:13:07.545Z,7.8
2019-01-15T12:14:08.765Z,7.8
2019-01-15T12:15:12.578Z,7.8
2019-01-15T12:16:13.980Z,7.8
2019-01-15T12:17:15.510Z,7.8
2019-01-15T12:18:16.716Z,7.8
2019-01-15T12:19:18.486Z,7.8
2019-01-15T12:20:20.016Z,7.8
2019-01-15T12:21:21.555Z,7.9
2019-01-15T12:22:23.134Z,7.9
2019-01-15T12:23:24.209Z,7.9
2019-01-15T12:24:25.626Z,7.9
2019-01-15T12:25:27.022Z,7.9
2019-01-15T12:26:28.268Z,7.9
2019-01-15T12:27:29.835Z,7.9
2019-01-15T12:28:31.057Z,7.9
2019-01-15T12:29:32.585Z,7.8
2019-01-15T12:30:33.791Z,7.8
2019-01-15T12:31:35.207Z,7.7
2019-01-15T12:32:36.581Z,7.6
2019-01-15T12:33:37.963Z,7.4
2019-01-15T12:34:39.520Z,7.2
2019-01-15T12:35:40.903Z,7.1
2019-01-15T12:36:42.156Z,7.2
2019-01-15T12:37:43.541Z,7.2
2019-01-15T12:38:44.941Z,7.2
2019-01-15T12:39:46.473Z,7.2
2019-01-15T12:40:48.016Z,7.2
2019-01-15T12:41:49.396Z,7.1
2019-01-15T12:42:50.799Z,7.1
2019-01-15T12:43:52.168Z,7.1
2019-01-15T12:44:53.710Z,7.1
2019-01-15T12:45:55.106Z,7.1
2019-01-15T12:46:56.719Z,7.2
2019-01-15T12:47:58.096Z,7.2
2019-01-15T12:48:59.474Z,7.2
2019-01-15T12:50:01.068Z,7.2
2019-01-15T12:51:02.644Z,7.2
2019-01-15T12:52:04.055Z,7.2
2019-01-15T12:53:05.464Z,7.2
2019-01-15T12:54:07.007Z,7.2
2019-01-15T12:55:08.521Z,7.2
2019-01-15T12:56:09.906Z,7.3
2019-01-15T12:57:18.803Z,7.3
2019-01-15T12:58:20.535Z,7.3
2019-01-15T12:59:21.919Z,7.4
2019-01-15T13:00:23.455Z,7.5
2019-01-15T13:01:25.005Z,7.5
2019-01-15T13:02:26.373Z,7.6
2019-01-15T13:03:27.771Z,7.6
2019-01-15T13:04:29.306Z,7.7
2019-01-15T13:05:30.720Z,7.7
2019-01-15T13:06:32.105Z,7.8
2019-01-15T13:07:33.663Z,7.8
2019-01-15T13:08:35.438Z,7.8
2019-01-15T13:09:36.668Z,7.9
2019-01-15T13:10:38.340Z,7.9
2019-01-15T13:11:39.904Z,7.9
2019-01-15T13:12:41.339Z,7.9
2019-01-15T13:13:42.713Z,7.9
2019-01-15T13:14:44.246Z,7.9
2019-01-15T13:15:45.795Z,7.9
2019-01-15T13:16:47.337Z,7.9
2019-01-15T13:17:48.755Z,7.9
2019-01-15T13:18:50.295Z,7.9
2019-01-15T13:19:51.840Z,7.9
2019-01-15T13:20:53.202Z,7.9
2019-01-15T13:21:54.603Z,7.9
2019-01-15T13:22:55.985Z,7.9
2019-01-15T13:23:57.519Z,7.8
2019-01-15T13:24:59.066Z,7.2
2019-01-15T13:26:00.305Z,7.3
2019-01-15T13:27:01.844Z,7.3
2019-01-15T13:28:03.243Z,7.3
2019-01-15T13:29:04.638Z,7.4
2019-01-15T13:30:06.177Z,7.4
2019-01-15T13:31:07.734Z,7.4
2019-01-15T13:32:08.959Z,7.4
2019-01-15T13:33:10.516Z,7.4
2019-01-15T13:34:12.042Z,7.4
2019-01-15T13:35:13.441Z,7.4
2019-01-15T13:36:14.510Z,7.4
2019-01-15T13:37:15.924Z,7.4
2019-01-15T13:38:17.473Z,7.4
2019-01-15T13:39:18.882Z,7.4
2019-01-15T13:40:20.103Z,7.4
2019-01-15T13:41:21.692Z,7.4
2019-01-15T13:42:23.263Z,7.4
2019-01-15T13:43:24.816Z,7.4
2019-01-15T13:44:26.202Z,7.4
2019-01-15T13:45:27.430Z,7.4
2019-01-15T13:46:28.993Z,7.4
2019-01-15T13:47:30.544Z,7.4
2019-01-15T13:48:31.926Z,7.4
2019-01-15T13:49:33.299Z,7.4
2019-01-15T13:50:34.700Z,7.4
2019-01-15T13:51:36.253Z,7.4
2019-01-15T13:52:37.662Z,7.4
2019-01-15T13:53:39.047Z,7.5
2019-01-15T13:54:40.604Z,7.5
2019-01-15T13:55:42.186Z,7.5
2019-01-15T13:56:43.746Z,7.6
2019-01-15T13:57:45.293Z,7.7
2019-01-15T13:58:46.829Z,7.7
2019-01-15T13:59:48.382Z,7.8
2019-01-15T14:00:49.791Z,7.8
2019-01-15T14:01:51.193Z,7.8
2019-01-15T14:02:52.623Z,7.8
2019-01-15T14:03:54.011Z,7.8
2019-01-15T14:04:55.232Z,7.9
2019-01-15T14:05:57.883Z,7.9
2019-01-15T14:06:59.435Z,7.9